sensor_id;sensor_type;location;lat;lon;timestamp;pressure;altitude;pressure_sealevel;temperature;humidity
77583;BME280;66726;52.388;9.986;2023-04-22T00:00:18;100501.16;;;12.92;52.60
77583;BME280;66726;52.388;9.986;2023-04-22T00:02:49;100503.00;;;12.91;53.16
77583;BME280;66726;52.388;9.986;2023-04-22T00:05:23;100501.25;;;12.84;52.96
77583;BME280;66726;52.388;9.986;2023-04-22T00:07:55;100499.56;;;12.83;53.20
77583;BME280;66726;52.388;9.986;2023-04-22T00:10:27;100497.50;;;12.85;53.33
77583;BME280;66726;52.388;9.986;2023-04-22T00:12:59;100494.06;;;12.76;52.91
77583;BME280;66726;52.388;9.986;2023-04-22T00:15:31;100487.69;;;12.77;53.61
77583;BME280;66726;52.388;9.986;2023-04-22T00:18:03;100494.31;;;12.66;53.70
77583;BME280;66726;52.388;9.986;2023-04-22T00:20:38;100489.22;;;12.71;54.09
77583;BME280;66726;52.388;9.986;2023-04-22T00:23:10;100481.53;;;12.68;53.67
77583;BME280;66726;52.388;9.986;2023-04-22T00:25:43;100476.16;;;12.68;53.57
77583;BME280;66726;52.388;9.986;2023-04-22T00:28:14;100474.13;;;12.70;53.27
77583;BME280;66726;52.388;9.986;2023-04-22T00:30:46;100469.09;;;12.67;53.69
77583;BME280;66726;52.388;9.986;2023-04-22T00:33:18;100467.53;;;12.58;54.30
77583;BME280;66726;52.388;9.986;2023-04-22T00:35:51;100466.50;;;12.59;54.55
77583;BME280;66726;52.388;9.986;2023-04-22T00:38:23;100463.63;;;12.61;53.96
77583;BME280;66726;52.388;9.986;2023-04-22T00:40:55;100461.13;;;12.59;53.88
77583;BME280;66726;52.388;9.986;2023-04-22T00:43:27;100458.16;;;12.54;54.41
77583;BME280;66726;52.388;9.986;2023-04-22T00:46:00;100456.13;;;12.56;54.98
77583;BME280;66726;52.388;9.986;2023-04-22T00:48:32;100458.50;;;12.51;54.25
77583;BME280;66726;52.388;9.986;2023-04-22T00:51:06;100447.13;;;12.49;54.33
77583;BME280;66726;52.388;9.986;2023-04-22T00:53:38;100456.22;;;12.40;54.60
77583;BME280;66726;52.388;9.986;2023-04-22T00:56:12;100454.22;;;12.42;54.68
77583;BME280;66726;52.388;9.986;2023-04-22T00:58:44;100455.63;;;12.30;54.48
77583;BME280;66726;52.388;9.986;2023-04-22T01:01:16;100452.31;;;12.28;54.60
77583;BME280;66726;52.388;9.986;2023-04-22T01:03:50;100453.63;;;12.32;54.87
77583;BME280;66726;52.388;9.986;2023-04-22T01:06:25;100450.94;;;12.32;54.76
77583;BME280;66726;52.388;9.986;2023-04-22T01:08:59;100447.78;;;12.29;54.51
77583;BME280;66726;52.388;9.986;2023-04-22T01:11:31;100443.94;;;12.23;54.62
77583;BME280;66726;52.388;9.986;2023-04-22T01:14:03;100438.41;;;12.25;55.25
77583;BME280;66726;52.388;9.986;2023-04-22T01:16:37;100445.13;;;12.20;54.76
77583;BME280;66726;52.388;9.986;2023-04-22T01:19:09;100444.66;;;12.17;55.40
77583;BME280;66726;52.388;9.986;2023-04-22T01:21:43;100440.59;;;12.21;54.99
77583;BME280;66726;52.388;9.986;2023-04-22T01:24:17;100443.16;;;12.14;55.39
77583;BME280;66726;52.388;9.986;2023-04-22T01:26:49;100446.56;;;12.08;55.42
77583;BME280;66726;52.388;9.986;2023-04-22T01:29:21;100450.38;;;12.14;55.33
77583;BME280;66726;52.388;9.986;2023-04-22T01:31:53;100445.88;;;12.06;56.05
77583;BME280;66726;52.388;9.986;2023-04-22T01:34:26;100449.06;;;12.10;55.70
77583;BME280;66726;52.388;9.986;2023-04-22T01:36:58;100447.38;;;12.09;55.20
77583;BME280;66726;52.388;9.986;2023-04-22T01:39:32;100439.75;;;11.98;55.62
77583;BME280;66726;52.388;9.986;2023-04-22T01:42:04;100452.97;;;11.99;55.92
77583;BME280;66726;52.388;9.986;2023-04-22T01:44:36;100448.44;;;12.00;55.92
77583;BME280;66726;52.388;9.986;2023-04-22T01:47:08;100451.16;;;11.92;56.52
77583;BME280;66726;52.388;9.986;2023-04-22T01:49:41;100441.28;;;11.92;56.09
77583;BME280;66726;52.388;9.986;2023-04-22T01:52:12;100446.47;;;11.94;56.39
77583;BME280;66726;52.388;9.986;2023-04-22T01:54:45;100436.75;;;11.93;55.93
77583;BME280;66726;52.388;9.986;2023-04-22T01:57:18;100441.00;;;11.79;56.42
77583;BME280;66726;52.388;9.986;2023-04-22T01:59:50;100439.81;;;11.82;56.38
77583;BME280;66726;52.388;9.986;2023-04-22T02:02:22;100448.91;;;11.81;56.66
77583;BME280;66726;52.388;9.986;2023-04-22T02:04:54;100436.13;;;11.83;56.93
77583;BME280;66726;52.388;9.986;2023-04-22T02:07:26;100445.19;;;11.82;57.08
77583;BME280;66726;52.388;9.986;2023-04-22T02:09:59;100454.78;;;11.76;56.78
77583;BME280;66726;52.388;9.986;2023-04-22T02:12:34;100446.09;;;11.74;56.80
77583;BME280;66726;52.388;9.986;2023-04-22T02:15:08;100451.94;;;11.69;57.38
77583;BME280;66726;52.388;9.986;2023-04-22T02:17:43;100454.78;;;11.68;57.83
77583;BME280;66726;52.388;9.986;2023-04-22T02:20:15;100449.13;;;11.63;57.54
77583;BME280;66726;52.388;9.986;2023-04-22T02:22:47;100449.94;;;11.63;57.86
77583;BME280;66726;52.388;9.986;2023-04-22T02:25:21;100448.28;;;11.62;57.99
77583;BME280;66726;52.388;9.986;2023-04-22T02:27:53;100435.56;;;11.56;57.97
77583;BME280;66726;52.388;9.986;2023-04-22T02:30:25;100435.91;;;11.53;58.34
77583;BME280;66726;52.388;9.986;2023-04-22T02:32:57;100439.59;;;11.52;58.46
77583;BME280;66726;52.388;9.986;2023-04-22T02:35:28;100429.03;;;11.51;58.12
77583;BME280;66726;52.388;9.986;2023-04-22T02:38:00;100431.22;;;11.47;57.91
77583;BME280;66726;52.388;9.986;2023-04-22T02:40:34;100428.25;;;11.42;58.24
77583;BME280;66726;52.388;9.986;2023-04-22T02:43:05;100425.72;;;11.41;57.85
77583;BME280;66726;52.388;9.986;2023-04-22T02:45:37;100421.22;;;11.41;58.37
77583;BME280;66726;52.388;9.986;2023-04-22T02:48:10;100419.56;;;11.32;58.78
77583;BME280;66726;52.388;9.986;2023-04-22T02:50:42;100420.06;;;11.36;58.19
77583;BME280;66726;52.388;9.986;2023-04-22T02:53:13;100418.56;;;11.33;58.48
77583;BME280;66726;52.388;9.986;2023-04-22T02:55:46;100418.72;;;11.32;58.50
77583;BME280;66726;52.388;9.986;2023-04-22T02:58:20;100411.53;;;11.32;58.22
77583;BME280;66726;52.388;9.986;2023-04-22T03:00:52;100413.53;;;11.30;58.39
77583;BME280;66726;52.388;9.986;2023-04-22T03:03:26;100419.94;;;11.29;58.67
77583;BME280;66726;52.388;9.986;2023-04-22T03:05:58;100415.22;;;11.31;58.11
77583;BME280;66726;52.388;9.986;2023-04-22T03:08:29;100415.91;;;11.33;58.37
77583;BME280;66726;52.388;9.986;2023-04-22T03:11:03;100414.41;;;11.23;58.82
77583;BME280;66726;52.388;9.986;2023-04-22T03:13:35;100412.03;;;11.28;58.56
77583;BME280;66726;52.388;9.986;2023-04-22T03:16:07;100409.91;;;11.23;59.20
77583;BME280;66726;52.388;9.986;2023-04-22T03:18:39;100408.56;;;11.19;58.90
77583;BME280;66726;52.388;9.986;2023-04-22T03:21:11;100408.38;;;11.20;59.50
77583;BME280;66726;52.388;9.986;2023-04-22T03:23:43;100407.22;;;11.15;59.52
77583;BME280;66726;52.388;9.986;2023-04-22T03:26:17;100407.75;;;11.10;59.39
77583;BME280;66726;52.388;9.986;2023-04-22T03:28:48;100405.91;;;11.11;59.56
77583;BME280;66726;52.388;9.986;2023-04-22T03:31:20;100401.19;;;11.13;59.69
77583;BME280;66726;52.388;9.986;2023-04-22T03:33:52;100403.88;;;11.13;59.85
77583;BME280;66726;52.388;9.986;2023-04-22T03:36:24;100405.59;;;11.06;59.65
77583;BME280;66726;52.388;9.986;2023-04-22T03:38:56;100404.41;;;11.08;59.87
77583;BME280;66726;52.388;9.986;2023-04-22T03:41:29;100403.91;;;11.05;60.08
77583;BME280;66726;52.388;9.986;2023-04-22T03:44:01;100403.91;;;11.05;59.66
77583;BME280;66726;52.388;9.986;2023-04-22T03:46:34;100405.91;;;11.03;59.72
77583;BME280;66726;52.388;9.986;2023-04-22T03:49:06;100399.91;;;11.01;60.42
77583;BME280;66726;52.388;9.986;2023-04-22T03:51:38;100406.44;;;10.98;60.12
77583;BME280;66726;52.388;9.986;2023-04-22T03:54:10;100408.28;;;10.98;60.44
77583;BME280;66726;52.388;9.986;2023-04-22T03:56:43;100402.78;;;10.91;61.08
77583;BME280;66726;52.388;9.986;2023-04-22T03:59:15;100406.44;;;10.90;61.04
77583;BME280;66726;52.388;9.986;2023-04-22T04:01:52;100401.59;;;10.86;61.07
77583;BME280;66726;52.388;9.986;2023-04-22T04:04:24;100409.63;;;10.86;61.29
77583;BME280;66726;52.388;9.986;2023-04-22T04:06:59;100401.28;;;10.81;61.40
77583;BME280;66726;52.388;9.986;2023-04-22T04:09:30;100406.97;;;10.78;61.54
77583;BME280;66726;52.388;9.986;2023-04-22T04:12:04;100399.28;;;10.75;61.54
77583;BME280;66726;52.388;9.986;2023-04-22T04:14:36;100410.16;;;10.73;62.17
77583;BME280;66726;52.388;9.986;2023-04-22T04:17:08;100402.31;;;10.63;62.34
77583;BME280;66726;52.388;9.986;2023-04-22T04:19:39;100407.81;;;10.62;62.42
77583;BME280;66726;52.388;9.986;2023-04-22T04:22:12;100413.69;;;10.57;62.73
77583;BME280;66726;52.388;9.986;2023-04-22T04:24:44;100412.16;;;10.55;63.17
77583;BME280;66726;52.388;9.986;2023-04-22T04:27:18;100410.53;;;10.54;63.13
77583;BME280;66726;52.388;9.986;2023-04-22T04:29:50;100408.84;;;10.53;62.77
77583;BME280;66726;52.388;9.986;2023-04-22T04:32:22;100407.69;;;10.47;63.03
77583;BME280;66726;52.388;9.986;2023-04-22T04:34:56;100414.38;;;10.43;63.47
77583;BME280;66726;52.388;9.986;2023-04-22T04:37:29;100401.66;;;10.29;64.03
77583;BME280;66726;52.388;9.986;2023-04-22T04:40:01;100396.81;;;10.33;63.89
77583;BME280;66726;52.388;9.986;2023-04-22T04:42:36;100393.97;;;10.34;64.06
77583;BME280;66726;52.388;9.986;2023-04-22T04:45:08;100394.13;;;10.25;63.89
77583;BME280;66726;52.388;9.986;2023-04-22T04:47:41;100397.63;;;10.25;64.00
77583;BME280;66726;52.388;9.986;2023-04-22T04:50:13;100387.25;;;10.22;64.26
77583;BME280;66726;52.388;9.986;2023-04-22T04:52:45;100385.09;;;10.26;64.12
77583;BME280;66726;52.388;9.986;2023-04-22T04:55:18;100386.09;;;10.33;63.73
77583;BME280;66726;52.388;9.986;2023-04-22T04:57:51;100391.13;;;10.36;62.94
77583;BME280;66726;52.388;9.986;2023-04-22T05:00:23;100389.78;;;10.32;63.75
77583;BME280;66726;52.388;9.986;2023-04-22T05:02:55;100382.25;;;10.35;64.42
77583;BME280;66726;52.388;9.986;2023-04-22T05:05:27;100384.91;;;10.35;64.07
77583;BME280;66726;52.388;9.986;2023-04-22T05:07:59;100388.44;;;10.36;63.65
77583;BME280;66726;52.388;9.986;2023-04-22T05:10:30;100389.28;;;10.36;64.01
77583;BME280;66726;52.388;9.986;2023-04-22T05:13:04;100396.63;;;10.42;64.10
77583;BME280;66726;52.388;9.986;2023-04-22T05:15:35;100393.47;;;10.47;63.59
77583;BME280;66726;52.388;9.986;2023-04-22T05:18:08;100394.81;;;10.51;64.00
77583;BME280;66726;52.388;9.986;2023-04-22T05:20:40;100393.13;;;10.50;63.86
77583;BME280;66726;52.388;9.986;2023-04-22T05:23:12;100398.78;;;10.55;63.21
77583;BME280;66726;52.388;9.986;2023-04-22T05:25:46;100393.78;;;10.52;63.98
77583;BME280;66726;52.388;9.986;2023-04-22T05:28:21;100385.91;;;10.58;64.40
77583;BME280;66726;52.388;9.986;2023-04-22T05:30:53;100381.09;;;10.54;64.31
77583;BME280;66726;52.388;9.986;2023-04-22T05:33:24;100383.91;;;10.60;64.25
77583;BME280;66726;52.388;9.986;2023-04-22T05:35:56;100392.09;;;10.67;64.26
77583;BME280;66726;52.388;9.986;2023-04-22T05:38:28;100386.25;;;10.72;64.36
77583;BME280;66726;52.388;9.986;2023-04-22T05:41:00;100390.22;;;10.76;64.47
77583;BME280;66726;52.388;9.986;2023-04-22T05:43:33;100392.59;;;10.79;64.08
77583;BME280;66726;52.388;9.986;2023-04-22T05:46:05;100390.06;;;10.85;63.83
77583;BME280;66726;52.388;9.986;2023-04-22T05:48:37;100396.09;;;10.87;63.95
77583;BME280;66726;52.388;9.986;2023-04-22T05:51:09;100395.94;;;10.89;64.34
77583;BME280;66726;52.388;9.986;2023-04-22T05:53:41;100393.56;;;10.94;64.53
77583;BME280;66726;52.388;9.986;2023-04-22T05:56:13;100394.88;;;10.98;64.55
77583;BME280;66726;52.388;9.986;2023-04-22T05:58:46;100397.22;;;11.01;64.31
77583;BME280;66726;52.388;9.986;2023-04-22T06:01:18;100395.19;;;11.03;64.08
77583;BME280;66726;52.388;9.986;2023-04-22T06:03:50;100393.19;;;11.05;64.33
77583;BME280;66726;52.388;9.986;2023-04-22T06:06:22;100388.16;;;11.10;64.20
77583;BME280;66726;52.388;9.986;2023-04-22T06:08:54;100395.03;;;11.12;64.26
77583;BME280;66726;52.388;9.986;2023-04-22T06:11:26;100390.16;;;11.16;64.21
77583;BME280;66726;52.388;9.986;2023-04-22T06:13:59;100388.97;;;11.18;64.24
77583;BME280;66726;52.388;9.986;2023-04-22T06:16:31;100391.94;;;11.24;64.42
77583;BME280;66726;52.388;9.986;2023-04-22T06:19:04;100391.63;;;11.27;64.68
77583;BME280;66726;52.388;9.986;2023-04-22T06:21:36;100393.78;;;11.31;64.40
77583;BME280;66726;52.388;9.986;2023-04-22T06:24:09;100394.75;;;11.38;63.91
77583;BME280;66726;52.388;9.986;2023-04-22T06:26:41;100393.41;;;11.42;64.08
77583;BME280;66726;52.388;9.986;2023-04-22T06:29:14;100391.69;;;11.49;64.83
77583;BME280;66726;52.388;9.986;2023-04-22T06:31:46;100386.47;;;11.56;64.87
77583;BME280;66726;52.388;9.986;2023-04-22T06:34:18;100394.81;;;11.61;65.08
77583;BME280;66726;52.388;9.986;2023-04-22T06:36:50;100393.94;;;11.68;63.98
77583;BME280;66726;52.388;9.986;2023-04-22T06:39:22;100397.13;;;11.72;63.92
77583;BME280;66726;52.388;9.986;2023-04-22T06:41:54;100400.66;;;11.73;63.83
77583;BME280;66726;52.388;9.986;2023-04-22T06:44:27;100398.81;;;11.73;64.03
77583;BME280;66726;52.388;9.986;2023-04-22T06:46:59;100390.59;;;11.75;64.05
77583;BME280;66726;52.388;9.986;2023-04-22T06:49:31;100395.13;;;11.74;63.74
77583;BME280;66726;52.388;9.986;2023-04-22T06:52:05;100391.06;;;11.78;64.04
77583;BME280;66726;52.388;9.986;2023-04-22T06:54:37;100391.53;;;11.82;63.76
77583;BME280;66726;52.388;9.986;2023-04-22T06:57:09;100380.50;;;11.85;63.69
77583;BME280;66726;52.388;9.986;2023-04-22T06:59:42;100377.59;;;11.86;64.60
77583;BME280;66726;52.388;9.986;2023-04-22T07:02:16;100374.88;;;11.94;64.87
77583;BME280;66726;52.388;9.986;2023-04-22T07:04:48;100362.59;;;12.00;64.28
77583;BME280;66726;52.388;9.986;2023-04-22T07:07:21;100369.41;;;12.10;65.35
77583;BME280;66726;52.388;9.986;2023-04-22T07:09:52;100368.66;;;12.16;64.33
77583;BME280;66726;52.388;9.986;2023-04-22T07:12:24;100363.78;;;12.20;64.22
77583;BME280;66726;52.388;9.986;2023-04-22T07:14:57;100364.00;;;12.33;63.55
77583;BME280;66726;52.388;9.986;2023-04-22T07:17:29;100365.31;;;12.37;65.36
77583;BME280;66726;52.388;9.986;2023-04-22T07:20:01;100368.16;;;12.58;64.93
77583;BME280;66726;52.388;9.986;2023-04-22T07:22:33;100362.25;;;12.63;65.45
77583;BME280;66726;52.388;9.986;2023-04-22T07:25:05;100357.34;;;12.81;63.79
77583;BME280;66726;52.388;9.986;2023-04-22T07:27:37;100361.06;;;12.80;65.28
77583;BME280;66726;52.388;9.986;2023-04-22T07:30:13;100357.81;;;12.85;66.00
77583;BME280;66726;52.388;9.986;2023-04-22T07:32:45;100361.72;;;12.97;65.41
77583;BME280;66726;52.388;9.986;2023-04-22T07:35:18;100368.31;;;13.09;64.48
77583;BME280;66726;52.388;9.986;2023-04-22T07:37:50;100377.16;;;13.17;64.59
77583;BME280;66726;52.388;9.986;2023-04-22T07:40:22;100372.47;;;13.26;64.79
77583;BME280;66726;52.388;9.986;2023-04-22T07:42:54;100363.13;;;13.37;63.59
77583;BME280;66726;52.388;9.986;2023-04-22T07:45:27;100362.81;;;13.46;64.48
77583;BME280;66726;52.388;9.986;2023-04-22T07:47:58;100364.66;;;13.60;63.59
77583;BME280;66726;52.388;9.986;2023-04-22T07:50:31;100354.28;;;13.57;63.92
77583;BME280;66726;52.388;9.986;2023-04-22T07:53:03;100361.03;;;13.68;63.95
77583;BME280;66726;52.388;9.986;2023-04-22T07:55:35;100352.00;;;13.76;63.57
77583;BME280;66726;52.388;9.986;2023-04-22T07:58:07;100355.84;;;13.88;62.81
77583;BME280;66726;52.388;9.986;2023-04-22T08:00:40;100355.47;;;13.91;62.90
77583;BME280;66726;52.388;9.986;2023-04-22T08:03:12;100354.72;;;13.97;63.18
77583;BME280;66726;52.388;9.986;2023-04-22T08:05:44;100355.97;;;14.01;63.75
77583;BME280;66726;52.388;9.986;2023-04-22T08:08:16;100355.88;;;14.09;62.92
77583;BME280;66726;52.388;9.986;2023-04-22T08:10:48;100354.69;;;14.18;62.85
77583;BME280;66726;52.388;9.986;2023-04-22T08:13:20;100348.63;;;14.31;62.03
77583;BME280;66726;52.388;9.986;2023-04-22T08:15:53;100349.72;;;14.36;63.52
77583;BME280;66726;52.388;9.986;2023-04-22T08:18:27;100344.00;;;14.46;63.11
77583;BME280;66726;52.388;9.986;2023-04-22T08:20:59;100344.53;;;14.62;61.25
77583;BME280;66726;52.388;9.986;2023-04-22T08:23:32;100345.06;;;14.73;61.72
77583;BME280;66726;52.388;9.986;2023-04-22T08:26:05;100348.44;;;14.81;61.05
77583;BME280;66726;52.388;9.986;2023-04-22T08:28:38;100346.38;;;14.90;60.96
77583;BME280;66726;52.388;9.986;2023-04-22T08:31:11;100344.28;;;15.13;60.21
77583;BME280;66726;52.388;9.986;2023-04-22T08:33:43;100346.56;;;15.16;61.12
77583;BME280;66726;52.388;9.986;2023-04-22T08:36:17;100348.72;;;15.27;60.92
77583;BME280;66726;52.388;9.986;2023-04-22T08:38:52;100341.28;;;15.42;60.50
77583;BME280;66726;52.388;9.986;2023-04-22T08:41:26;100339.25;;;15.44;60.67
77583;BME280;66726;52.388;9.986;2023-04-22T08:43:59;100344.28;;;15.54;60.38
77583;BME280;66726;52.388;9.986;2023-04-22T08:46:34;100336.81;;;15.62;60.03
77583;BME280;66726;52.388;9.986;2023-04-22T08:49:08;100328.97;;;15.67;60.51
77583;BME280;66726;52.388;9.986;2023-04-22T08:51:43;100331.88;;;15.72;60.44
77583;BME280;66726;52.388;9.986;2023-04-22T08:54:15;100332.31;;;15.83;60.82
77583;BME280;66726;52.388;9.986;2023-04-22T08:56:51;100331.53;;;16.02;59.76
77583;BME280;66726;52.388;9.986;2023-04-22T08:59:25;100328.44;;;16.05;59.00
77583;BME280;66726;52.388;9.986;2023-04-22T09:02:00;100327.81;;;16.16;58.73
77583;BME280;66726;52.388;9.986;2023-04-22T09:04:34;100327.59;;;16.31;58.43
77583;BME280;66726;52.388;9.986;2023-04-22T09:07:08;100322.84;;;16.39;58.93
77583;BME280;66726;52.388;9.986;2023-04-22T09:09:42;100322.59;;;16.47;58.48
77583;BME280;66726;52.388;9.986;2023-04-22T09:12:15;100318.06;;;16.67;57.97
77583;BME280;66726;52.388;9.986;2023-04-22T09:14:48;100314.94;;;16.77;57.42
77583;BME280;66726;52.388;9.986;2023-04-22T09:17:34;100312.59;;;16.94;56.87
77583;BME280;66726;52.388;9.986;2023-04-22T09:20:11;100313.44;;;17.01;55.63
77583;BME280;66726;52.388;9.986;2023-04-22T09:22:47;100308.97;;;17.19;55.25
77583;BME280;66726;52.388;9.986;2023-04-22T09:25:24;100309.41;;;17.16;56.86
77583;BME280;66726;52.388;9.986;2023-04-22T09:27:58;100305.44;;;17.26;56.41
77583;BME280;66726;52.388;9.986;2023-04-22T09:30:35;100309.69;;;17.53;53.77
77583;BME280;66726;52.388;9.986;2023-04-22T09:33:09;100307.59;;;17.61;52.93
77583;BME280;66726;52.388;9.986;2023-04-22T09:35:44;100312.47;;;17.78;52.61
77583;BME280;66726;52.388;9.986;2023-04-22T09:38:18;100304.16;;;17.79;53.99
77583;BME280;66726;52.388;9.986;2023-04-22T09:40:52;100296.81;;;17.86;53.78
77583;BME280;66726;52.388;9.986;2023-04-22T09:43:25;100294.16;;;18.11;52.52
77583;BME280;66726;52.388;9.986;2023-04-22T09:45:59;100293.09;;;18.12;54.39
77583;BME280;66726;52.388;9.986;2023-04-22T09:48:32;100290.00;;;18.33;52.71
77583;BME280;66726;52.388;9.986;2023-04-22T09:51:13;100282.94;;;18.32;53.61
77583;BME280;66726;52.388;9.986;2023-04-22T09:53:46;100285.91;;;18.49;52.45
77583;BME280;66726;52.388;9.986;2023-04-22T09:56:39;100279.38;;;18.56;53.91
77583;BME280;66726;52.388;9.986;2023-04-22T09:59:11;100280.34;;;18.87;51.03
77583;BME280;66726;52.388;9.986;2023-04-22T10:01:44;100280.03;;;18.95;51.84
77583;BME280;66726;52.388;9.986;2023-04-22T10:04:18;100279.00;;;18.96;53.11
77583;BME280;66726;52.388;9.986;2023-04-22T10:06:53;100269.66;;;19.10;50.86
77583;BME280;66726;52.388;9.986;2023-04-22T10:09:27;100268.28;;;19.19;50.82
77583;BME280;66726;52.388;9.986;2023-04-22T10:11:59;100263.22;;;19.22;50.77
77583;BME280;66726;52.388;9.986;2023-04-22T10:14:32;100254.53;;;19.32;49.77
77583;BME280;66726;52.388;9.986;2023-04-22T10:17:06;100260.06;;;19.44;47.54
77583;BME280;66726;52.388;9.986;2023-04-22T10:19:41;100254.16;;;19.47;49.59
77583;BME280;66726;52.388;9.986;2023-04-22T10:22:14;100257.41;;;19.55;48.74
77583;BME280;66726;52.388;9.986;2023-04-22T10:24:49;100260.59;;;19.64;46.44
77583;BME280;66726;52.388;9.986;2023-04-22T10:27:25;100250.84;;;19.74;43.46
77583;BME280;66726;52.388;9.986;2023-04-22T10:29:58;100257.94;;;19.76;45.07
77583;BME280;66726;52.388;9.986;2023-04-22T10:32:31;100254.41;;;19.87;47.55
77583;BME280;66726;52.388;9.986;2023-04-22T10:35:15;100251.38;;;19.95;45.74
77583;BME280;66726;52.388;9.986;2023-04-22T10:37:47;100254.84;;;20.13;45.20
77583;BME280;66726;52.388;9.986;2023-04-22T10:40:19;100251.28;;;20.24;43.07
77583;BME280;66726;52.388;9.986;2023-04-22T10:42:57;100255.47;;;20.27;46.10
77583;BME280;66726;52.388;9.986;2023-04-22T10:45:35;100250.75;;;20.34;46.24
77583;BME280;66726;52.388;9.986;2023-04-22T10:48:07;100252.63;;;20.45;46.21
77583;BME280;66726;52.388;9.986;2023-04-22T10:50:42;100243.88;;;20.55;45.21
77583;BME280;66726;52.388;9.986;2023-04-22T10:53:36;100243.88;;;20.66;44.66
77583;BME280;66726;52.388;9.986;2023-04-22T10:56:19;100242.69;;;20.74;42.96
77583;BME280;66726;52.388;9.986;2023-04-22T10:58:52;100249.88;;;20.80;45.38
77583;BME280;66726;52.388;9.986;2023-04-22T11:01:27;100240.06;;;20.91;45.32
77583;BME280;66726;52.388;9.986;2023-04-22T11:04:22;100240.38;;;21.06;42.94
77583;BME280;66726;52.388;9.986;2023-04-22T11:07:16;100233.41;;;21.10;44.25
77583;BME280;66726;52.388;9.986;2023-04-22T11:10:07;100228.16;;;21.20;44.02
77583;BME280;66726;52.388;9.986;2023-04-22T11:12:45;100226.72;;;21.29;45.44
77583;BME280;66726;52.388;9.986;2023-04-22T11:15:21;100227.97;;;21.38;42.93
77583;BME280;66726;52.388;9.986;2023-04-22T11:17:54;100228.78;;;21.50;43.45
77583;BME280;66726;52.388;9.986;2023-04-22T11:20:26;100218.91;;;21.61;43.36
77583;BME280;66726;52.388;9.986;2023-04-22T11:23:01;100208.50;;;21.74;42.86
77583;BME280;66726;52.388;9.986;2023-04-22T11:25:33;100217.75;;;21.73;43.59
77583;BME280;66726;52.388;9.986;2023-04-22T11:28:05;100203.69;;;21.82;43.74
77583;BME280;66726;52.388;9.986;2023-04-22T11:30:37;100206.66;;;21.92;44.19
77583;BME280;66726;52.388;9.986;2023-04-22T11:33:09;100207.38;;;22.04;42.54
77583;BME280;66726;52.388;9.986;2023-04-22T11:35:47;100196.66;;;22.14;42.13
77583;BME280;66726;52.388;9.986;2023-04-22T11:38:21;100195.63;;;22.20;44.33
77583;BME280;66726;52.388;9.986;2023-04-22T11:40:55;100190.28;;;22.25;42.68
77583;BME280;66726;52.388;9.986;2023-04-22T11:43:27;100188.03;;;22.39;43.40
77583;BME280;66726;52.388;9.986;2023-04-22T11:45:59;100194.97;;;22.46;43.57
77583;BME280;66726;52.388;9.986;2023-04-22T11:48:31;100181.69;;;22.55;43.73
77583;BME280;66726;52.388;9.986;2023-04-22T11:51:12;100183.50;;;22.66;44.90
77583;BME280;66726;52.388;9.986;2023-04-22T11:53:52;100169.75;;;22.78;41.95
77583;BME280;66726;52.388;9.986;2023-04-22T11:56:24;100167.72;;;22.90;43.31
77583;BME280;66726;52.388;9.986;2023-04-22T11:58:57;100171.22;;;23.07;41.71
77583;BME280;66726;52.388;9.986;2023-04-22T12:01:30;100170.25;;;23.18;38.70
77583;BME280;66726;52.388;9.986;2023-04-22T12:04:02;100161.06;;;23.29;38.32
77583;BME280;66726;52.388;9.986;2023-04-22T12:06:34;100165.19;;;23.32;36.77
77583;BME280;66726;52.388;9.986;2023-04-22T12:09:10;100158.69;;;23.38;38.39
77583;BME280;66726;52.388;9.986;2023-04-22T12:11:45;100164.00;;;23.44;36.56
77583;BME280;66726;52.388;9.986;2023-04-22T12:14:17;100170.28;;;23.45;35.43
77583;BME280;66726;52.388;9.986;2023-04-22T12:16:51;100169.75;;;23.48;36.62
77583;BME280;66726;52.388;9.986;2023-04-22T12:19:27;100157.78;;;23.54;38.43
77583;BME280;66726;52.388;9.986;2023-04-22T12:21:59;100170.16;;;23.61;37.10
77583;BME280;66726;52.388;9.986;2023-04-22T12:24:32;100165.53;;;23.62;35.75
77583;BME280;66726;52.388;9.986;2023-04-22T12:27:03;100162.50;;;23.63;36.39
77583;BME280;66726;52.388;9.986;2023-04-22T12:29:36;100148.81;;;23.58;36.60
77583;BME280;66726;52.388;9.986;2023-04-22T12:32:08;100155.38;;;23.57;36.06
77583;BME280;66726;52.388;9.986;2023-04-22T12:34:40;100155.44;;;23.62;37.24
77583;BME280;66726;52.388;9.986;2023-04-22T12:37:12;100155.69;;;23.39;34.15
77583;BME280;66726;52.388;9.986;2023-04-22T12:39:46;100147.06;;;23.47;36.00
77583;BME280;66726;52.388;9.986;2023-04-22T12:42:18;100147.94;;;23.53;36.70
77583;BME280;66726;52.388;9.986;2023-04-22T12:44:49;100147.66;;;23.49;36.44
77583;BME280;66726;52.388;9.986;2023-04-22T12:47:21;100147.34;;;23.46;37.33
77583;BME280;66726;52.388;9.986;2023-04-22T12:49:54;100138.84;;;23.42;37.70
77583;BME280;66726;52.388;9.986;2023-04-22T12:52:25;100135.50;;;23.40;38.34
77583;BME280;66726;52.388;9.986;2023-04-22T12:54:59;100132.22;;;23.38;37.59
77583;BME280;66726;52.388;9.986;2023-04-22T12:57:31;100139.31;;;23.39;37.95
77583;BME280;66726;52.388;9.986;2023-04-22T13:00:03;100135.78;;;23.39;38.31
77583;BME280;66726;52.388;9.986;2023-04-22T13:02:36;100132.22;;;23.38;37.42
77583;BME280;66726;52.388;9.986;2023-04-22T13:05:08;100133.81;;;23.34;36.71
77583;BME280;66726;52.388;9.986;2023-04-22T13:07:41;100123.75;;;23.40;38.58
77583;BME280;66726;52.388;9.986;2023-04-22T13:10:21;100122.44;;;23.42;38.81
77583;BME280;66726;52.388;9.986;2023-04-22T13:12:53;100121.34;;;23.43;39.01
77583;BME280;66726;52.388;9.986;2023-04-22T13:15:39;100122.47;;;23.47;38.34
77583;BME280;66726;52.388;9.986;2023-04-22T13:18:11;100123.25;;;23.43;37.01
77583;BME280;66726;52.388;9.986;2023-04-22T13:20:43;100115.13;;;23.48;38.10